sensor_id;sensor_type;location;lat;lon;timestamp;pressure;altitude;pressure_sealevel;temperature;humidity
13407;BME280;6774;48.208;10.766;2023-02-23T00:01:50;95211.56;;;8.36;80.41
13407;BME280;6774;48.208;10.766;2023-02-23T00:04:19;95218.09;;;8.40;80.20
13407;BME280;6774;48.208;10.766;2023-02-23T00:06:46;95213.19;;;8.37;80.16
13407;BME280;6774;48.208;10.766;2023-02-23T00:09:15;95211.00;;;8.25;80.85
13407;BME280;6774;48.208;10.766;2023-02-23T00:11:48;95217.22;;;8.10;80.93
13407;BME280;6774;48.208;10.766;2023-02-23T00:14:17;95218.41;;;8.07;80.92
13407;BME280;6774;48.208;10.766;2023-02-23T00:16:45;95221.56;;;8.03;81.17
13407;BME280;6774;48.208;10.766;2023-02-23T00:19:13;95220.88;;;7.86;81.91
13407;BME280;6774;48.208;10.766;2023-02-23T00:21:43;95215.28;;;7.89;81.75
13407;BME280;6774;48.208;10.766;2023-02-23T00:24:13;95216.00;;;7.83;82.37
13407;BME280;6774;48.208;10.766;2023-02-23T00:26:42;95215.88;;;7.76;82.88
13407;BME280;6774;48.208;10.766;2023-02-23T00:29:12;95220.31;;;7.76;82.94
13407;BME280;6774;48.208;10.766;2023-02-23T00:31:43;95221.94;;;7.77;83.02
13407;BME280;6774;48.208;10.766;2023-02-23T00:34:13;95216.53;;;7.55;84.27
13407;BME280;6774;48.208;10.766;2023-02-23T00:36:42;95219.75;;;7.65;84.02
13407;BME280;6774;48.208;10.766;2023-02-23T00:39:11;95220.03;;;7.70;84.19
13407;BME280;6774;48.208;10.766;2023-02-23T00:41:44;95218.75;;;7.66;83.91
13407;BME280;6774;48.208;10.766;2023-02-23T00:44:13;95221.03;;;7.69;84.02
13407;BME280;6774;48.208;10.766;2023-02-23T00:46:42;95221.66;;;7.72;83.63
13407;BME280;6774;48.208;10.766;2023-02-23T00:49:11;95220.69;;;7.73;83.12
13407;BME280;6774;48.208;10.766;2023-02-23T00:51:40;95222.75;;;7.77;83.24
13407;BME280;6774;48.208;10.766;2023-02-23T00:54:11;95217.88;;;7.74;82.82
13407;BME280;6774;48.208;10.766;2023-02-23T00:56:39;95216.06;;;7.75;82.96
13407;BME280;6774;48.208;10.766;2023-02-23T00:59:07;95212.25;;;7.77;82.88
13407;BME280;6774;48.208;10.766;2023-02-23T01:01:35;95213.53;;;7.81;83.07
13407;BME280;6774;48.208;10.766;2023-02-23T01:04:04;95211.72;;;7.82;82.98
13407;BME280;6774;48.208;10.766;2023-02-23T01:06:33;95213.28;;;7.91;82.54
13407;BME280;6774;48.208;10.766;2023-02-23T01:09:06;95222.22;;;8.05;82.55
13407;BME280;6774;48.208;10.766;2023-02-23T01:11:38;95215.22;;;8.12;82.31
13407;BME280;6774;48.208;10.766;2023-02-23T01:14:09;95221.78;;;8.16;82.04
13407;BME280;6774;48.208;10.766;2023-02-23T01:16:37;95212.78;;;8.10;82.01
13407;BME280;6774;48.208;10.766;2023-02-23T01:19:06;95220.41;;;8.05;81.92
13407;BME280;6774;48.208;10.766;2023-02-23T01:21:36;95212.59;;;7.97;82.22
13407;BME280;6774;48.208;10.766;2023-02-23T01:24:05;95215.41;;;7.95;82.20
13407;BME280;6774;48.208;10.766;2023-02-23T01:26:35;95206.47;;;7.82;82.89
13407;BME280;6774;48.208;10.766;2023-02-23T01:29:07;95205.97;;;7.86;82.57
13407;BME280;6774;48.208;10.766;2023-02-23T01:31:37;95215.63;;;7.86;82.67
13407;BME280;6774;48.208;10.766;2023-02-23T01:34:08;95215.78;;;7.69;83.11
13407;BME280;6774;48.208;10.766;2023-02-23T01:36:38;95204.09;;;7.72;83.08
13407;BME280;6774;48.208;10.766;2023-02-23T01:39:14;95197.22;;;7.71;83.30
13407;BME280;6774;48.208;10.766;2023-02-23T01:41:43;95203.47;;;7.70;82.65
13407;BME280;6774;48.208;10.766;2023-02-23T01:47:20;95196.84;;;7.74;82.95
13407;BME280;6774;48.208;10.766;2023-02-23T01:49:48;95192.09;;;7.78;82.56
13407;BME280;6774;48.208;10.766;2023-02-23T01:52:17;95193.16;;;7.83;82.63
13407;BME280;6774;48.208;10.766;2023-02-23T01:54:49;95186.38;;;7.89;82.48
13407;BME280;6774;48.208;10.766;2023-02-23T01:57:20;95191.47;;;7.90;82.56
13407;BME280;6774;48.208;10.766;2023-02-23T01:59:50;95189.28;;;7.94;82.14
13407;BME280;6774;48.208;10.766;2023-02-23T02:02:25;95189.56;;;7.99;82.06
13407;BME280;6774;48.208;10.766;2023-02-23T02:04:59;95189.94;;;7.96;81.87
13407;BME280;6774;48.208;10.766;2023-02-23T02:07:31;95189.03;;;7.89;82.02
13407;BME280;6774;48.208;10.766;2023-02-23T02:10:01;95188.78;;;7.76;82.16
13407;BME280;6774;48.208;10.766;2023-02-23T02:13:06;95185.91;;;7.70;81.96
13407;BME280;6774;48.208;10.766;2023-02-23T02:15:42;95187.72;;;7.85;82.74
13407;BME280;6774;48.208;10.766;2023-02-23T02:18:26;95186.38;;;7.89;82.38
13407;BME280;6774;48.208;10.766;2023-02-23T02:21:48;95178.63;;;7.95;82.30
13407;BME280;6774;48.208;10.766;2023-02-23T02:27:33;95177.28;;;8.14;82.08
13407;BME280;6774;48.208;10.766;2023-02-23T02:30:23;95175.38;;;8.23;81.81
13407;BME280;6774;48.208;10.766;2023-02-23T02:33:21;95168.13;;;8.40;81.67
13407;BME280;6774;48.208;10.766;2023-02-23T02:39:04;95167.59;;;8.44;81.11
13407;BME280;6774;48.208;10.766;2023-02-23T02:41:47;95167.69;;;8.51;80.73
13407;BME280;6774;48.208;10.766;2023-02-23T02:44:26;95164.69;;;8.54;80.84
13407;BME280;6774;48.208;10.766;2023-02-23T02:47:00;95164.69;;;8.54;80.71
13407;BME280;6774;48.208;10.766;2023-02-23T02:49:39;95163.31;;;8.58;80.45
13407;BME280;6774;48.208;10.766;2023-02-23T02:52:15;95165.31;;;8.56;80.51
13407;BME280;6774;48.208;10.766;2023-02-23T02:54:50;95163.69;;;8.55;80.78
13407;BME280;6774;48.208;10.766;2023-02-23T02:57:22;95164.94;;;8.59;80.58
13407;BME280;6774;48.208;10.766;2023-02-23T02:59:51;95169.03;;;8.62;80.69
13407;BME280;6774;48.208;10.766;2023-02-23T03:02:38;95172.72;;;8.67;80.85
13407;BME280;6774;48.208;10.766;2023-02-23T03:05:27;95165.50;;;8.69;80.93
13407;BME280;6774;48.208;10.766;2023-02-23T03:08:20;95161.38;;;8.67;80.32
13407;BME280;6774;48.208;10.766;2023-02-23T03:11:09;95162.19;;;8.67;80.60
13407;BME280;6774;48.208;10.766;2023-02-23T03:14:06;95169.09;;;8.68;80.55
13407;BME280;6774;48.208;10.766;2023-02-23T03:17:04;95169.38;;;8.73;81.00
13407;BME280;6774;48.208;10.766;2023-02-23T03:19:57;95160.28;;;8.76;81.00
13407;BME280;6774;48.208;10.766;2023-02-23T03:22:50;95165.19;;;8.79;81.08
13407;BME280;6774;48.208;10.766;2023-02-23T03:25:47;95174.16;;;8.84;81.23
13407;BME280;6774;48.208;10.766;2023-02-23T03:28:44;95169.78;;;8.92;80.98
13407;BME280;6774;48.208;10.766;2023-02-23T03:31:37;95165.34;;;8.92;80.91
13407;BME280;6774;48.208;10.766;2023-02-23T03:34:28;95168.16;;;8.91;80.98
13407;BME280;6774;48.208;10.766;2023-02-23T03:37:20;95169.78;;;8.92;81.02
13407;BME280;6774;48.208;10.766;2023-02-23T03:40:12;95178.69;;;8.91;81.09
13407;BME280;6774;48.208;10.766;2023-02-23T03:43:06;95182.03;;;8.84;81.90
13407;BME280;6774;48.208;10.766;2023-02-23T03:45:55;95177.41;;;8.87;81.65
13407;BME280;6774;48.208;10.766;2023-02-23T03:48:43;95187.34;;;8.70;82.10
13407;BME280;6774;48.208;10.766;2023-02-23T03:51:33;95175.25;;;8.75;82.16
13407;BME280;6774;48.208;10.766;2023-02-23T03:54:23;95185.44;;;8.78;82.60
13407;BME280;6774;48.208;10.766;2023-02-23T03:57:13;95182.72;;;8.72;82.78
13407;BME280;6774;48.208;10.766;2023-02-23T04:00:08;95188.97;;;8.71;82.67
13407;BME280;6774;48.208;10.766;2023-02-23T04:02:58;95189.78;;;8.71;82.80
13407;BME280;6774;48.208;10.766;2023-02-23T04:05:46;95185.25;;;8.80;82.70
13407;BME280;6774;48.208;10.766;2023-02-23T04:08:35;95184.56;;;8.93;82.92
13407;BME280;6774;48.208;10.766;2023-02-23T04:11:26;95187.28;;;8.99;82.56
13407;BME280;6774;48.208;10.766;2023-02-23T04:14:16;95185.09;;;9.03;82.13
13407;BME280;6774;48.208;10.766;2023-02-23T04:16:44;95185.34;;;9.08;82.50
13407;BME280;6774;48.208;10.766;2023-02-23T04:19:12;95183.97;;;9.12;82.81
13407;BME280;6774;48.208;10.766;2023-02-23T04:21:40;95184.59;;;9.14;82.47
13407;BME280;6774;48.208;10.766;2023-02-23T04:24:09;95190.84;;;9.13;83.52
13407;BME280;6774;48.208;10.766;2023-02-23T04:26:37;95182.34;;;9.11;83.85
13407;BME280;6774;48.208;10.766;2023-02-23T04:29:05;95184.16;;;9.10;84.28
13407;BME280;6774;48.208;10.766;2023-02-23T04:31:33;95177.66;;;9.06;84.61
13407;BME280;6774;48.208;10.766;2023-02-23T04:34:01;95180.81;;;9.02;84.71
13407;BME280;6774;48.208;10.766;2023-02-23T04:36:31;95180.75;;;8.95;85.36
13407;BME280;6774;48.208;10.766;2023-02-23T04:38:59;95182.31;;;8.90;85.69
13407;BME280;6774;48.208;10.766;2023-02-23T04:41:27;95177.59;;;8.85;85.94
13407;BME280;6774;48.208;10.766;2023-02-23T04:43:54;95178.78;;;8.82;86.21
13407;BME280;6774;48.208;10.766;2023-02-23T04:46:23;95175.16;;;8.83;86.30
13407;BME280;6774;48.208;10.766;2023-02-23T04:48:51;95186.25;;;8.79;86.78
13407;BME280;6774;48.208;10.766;2023-02-23T04:51:19;95181.34;;;8.76;87.05
13407;BME280;6774;48.208;10.766;2023-02-23T04:53:48;95189.22;;;8.76;86.99
13407;BME280;6774;48.208;10.766;2023-02-23T04:56:16;95188.06;;;8.78;86.91
13407;BME280;6774;48.208;10.766;2023-02-23T04:58:44;95187.41;;;8.76;87.19
13407;BME280;6774;48.208;10.766;2023-02-23T05:01:12;95183.91;;;8.69;87.97
13407;BME280;6774;48.208;10.766;2023-02-23T05:03:39;95186.88;;;8.66;87.72
13407;BME280;6774;48.208;10.766;2023-02-23T05:06:07;95190.13;;;8.68;87.64
13407;BME280;6774;48.208;10.766;2023-02-23T05:08:35;95180.09;;;8.72;88.07
13407;BME280;6774;48.208;10.766;2023-02-23T05:11:06;95182.34;;;8.75;88.01
13407;BME280;6774;48.208;10.766;2023-02-23T05:13:34;95178.88;;;8.74;87.97
13407;BME280;6774;48.208;10.766;2023-02-23T05:16:02;95183.41;;;8.80;88.18
13407;BME280;6774;48.208;10.766;2023-02-23T05:18:30;95177.16;;;8.81;88.30
13407;BME280;6774;48.208;10.766;2023-02-23T05:21:01;95174.16;;;8.84;88.46
13407;BME280;6774;48.208;10.766;2023-02-23T05:23:29;95178.25;;;8.87;88.22
13407;BME280;6774;48.208;10.766;2023-02-23T05:25:58;95181.13;;;8.92;88.03
13407;BME280;6774;48.208;10.766;2023-02-23T05:28:31;95183.38;;;8.95;88.00
13407;BME280;6774;48.208;10.766;2023-02-23T05:30:59;95183.66;;;9.00;88.42
13407;BME280;6774;48.208;10.766;2023-02-23T05:33:27;95177.56;;;9.00;88.01
13407;BME280;6774;48.208;10.766;2023-02-23T05:35:54;95181.41;;;8.97;88.14
13407;BME280;6774;48.208;10.766;2023-02-23T05:38:23;95180.03;;;8.87;88.06
13407;BME280;6774;48.208;10.766;2023-02-23T05:40:50;95180.97;;;8.79;88.73
13407;BME280;6774;48.208;10.766;2023-02-23T05:43:18;95182.41;;;8.81;88.83
13407;BME280;6774;48.208;10.766;2023-02-23T05:45:47;95182.41;;;8.81;88.58
13407;BME280;6774;48.208;10.766;2023-02-23T05:48:15;95183.25;;;8.67;89.38
13407;BME280;6774;48.208;10.766;2023-02-23T05:50:44;95186.06;;;8.66;89.55
13407;BME280;6774;48.208;10.766;2023-02-23T05:53:12;95183.91;;;8.69;89.74
13407;BME280;6774;48.208;10.766;2023-02-23T05:55:40;95178.47;;;8.56;90.08
13407;BME280;6774;48.208;10.766;2023-02-23T05:58:07;95182.72;;;8.57;89.99
13407;BME280;6774;48.208;10.766;2023-02-23T06:00:35;95187.81;;;8.44;91.17
13407;BME280;6774;48.208;10.766;2023-02-23T06:03:04;95186.00;;;8.44;90.45
13407;BME280;6774;48.208;10.766;2023-02-23T06:05:32;95192.91;;;8.60;89.77
13407;BME280;6774;48.208;10.766;2023-02-23T06:08:00;95190.97;;;8.54;90.22
13407;BME280;6774;48.208;10.766;2023-02-23T06:10:46;95194.00;;;8.51;90.75
13407;BME280;6774;48.208;10.766;2023-02-23T06:13:14;95195.44;;;8.53;90.20
13407;BME280;6774;48.208;10.766;2023-02-23T06:15:43;95198.50;;;8.57;89.71
13407;BME280;6774;48.208;10.766;2023-02-23T06:18:12;95195.25;;;8.55;90.15
13407;BME280;6774;48.208;10.766;2023-02-23T06:20:40;95193.72;;;8.61;90.03
13407;BME280;6774;48.208;10.766;2023-02-23T06:23:08;95202.22;;;8.63;90.56
13407;BME280;6774;48.208;10.766;2023-02-23T06:25:36;95199.50;;;8.71;90.09
13407;BME280;6774;48.208;10.766;2023-02-23T06:28:04;95202.19;;;8.77;90.03
13407;BME280;6774;48.208;10.766;2023-02-23T06:30:33;95208.09;;;8.79;90.24
13407;BME280;6774;48.208;10.766;2023-02-23T06:33:00;95206.09;;;8.81;90.06
13407;BME280;6774;48.208;10.766;2023-02-23T06:35:31;95214.63;;;8.83;89.99
13407;BME280;6774;48.208;10.766;2023-02-23T06:37:59;95217.06;;;8.85;89.78
13407;BME280;6774;48.208;10.766;2023-02-23T06:40:27;95219.78;;;8.92;89.63
13407;BME280;6774;48.208;10.766;2023-02-23T06:42:56;95221.69;;;8.98;89.38
13407;BME280;6774;48.208;10.766;2023-02-23T06:45:25;95216.84;;;9.01;89.46
13407;BME280;6774;48.208;10.766;2023-02-23T06:47:53;95223.84;;;9.09;89.55
13407;BME280;6774;48.208;10.766;2023-02-23T06:50:21;95221.38;;;9.07;89.80
13407;BME280;6774;48.208;10.766;2023-02-23T06:52:50;95228.72;;;9.12;89.22
13407;BME280;6774;48.208;10.766;2023-02-23T06:55:17;95224.06;;;9.14;88.96
13407;BME280;6774;48.208;10.766;2023-02-23T06:57:47;95230.44;;;9.20;88.95
13407;BME280;6774;48.208;10.766;2023-02-23T07:00:16;95235.38;;;9.29;89.33
13407;BME280;6774;48.208;10.766;2023-02-23T07:02:45;95231.75;;;9.30;89.20
13407;BME280;6774;48.208;10.766;2023-02-23T07:05:12;95237.84;;;9.31;89.19
13407;BME280;6774;48.208;10.766;2023-02-23T07:07:40;95242.91;;;9.32;89.29
13407;BME280;6774;48.208;10.766;2023-02-23T07:10:11;95244.38;;;9.35;89.35
13407;BME280;6774;48.208;10.766;2023-02-23T07:12:39;95245.28;;;9.42;88.65
13407;BME280;6774;48.208;10.766;2023-02-23T07:15:08;95239.16;;;9.41;88.66
13407;BME280;6774;48.208;10.766;2023-02-23T07:17:35;95244.06;;;9.45;88.61
13407;BME280;6774;48.208;10.766;2023-02-23T07:20:04;95251.78;;;9.46;88.94
13407;BME280;6774;48.208;10.766;2023-02-23T07:22:32;95243.69;;;9.48;88.47
13407;BME280;6774;48.208;10.766;2023-02-23T07:25:00;95248.94;;;9.48;88.70
13407;BME280;6774;48.208;10.766;2023-02-23T07:27:29;95246.19;;;9.56;88.71
13407;BME280;6774;48.208;10.766;2023-02-23T07:29:57;95245.19;;;9.57;88.18
13407;BME280;6774;48.208;10.766;2023-02-23T07:32:24;95245.81;;;9.59;88.43
13407;BME280;6774;48.208;10.766;2023-02-23T07:34:53;95247.31;;;9.68;88.45
13407;BME280;6774;48.208;10.766;2023-02-23T07:37:21;95248.72;;;9.64;88.27
13407;BME280;6774;48.208;10.766;2023-02-23T07:39:49;95237.56;;;9.62;88.63
13407;BME280;6774;48.208;10.766;2023-02-23T07:42:17;95241.94;;;9.76;87.85
13407;BME280;6774;48.208;10.766;2023-02-23T07:44:46;95239.16;;;9.84;87.75
13407;BME280;6774;48.208;10.766;2023-02-23T07:47:15;95238.16;;;9.85;88.04
13407;BME280;6774;48.208;10.766;2023-02-23T07:49:42;95252.53;;;9.83;88.03
13407;BME280;6774;48.208;10.766;2023-02-23T07:52:10;95245.72;;;9.88;87.97
13407;BME280;6774;48.208;10.766;2023-02-23T07:54:38;95246.56;;;9.95;87.87
13407;BME280;6774;48.208;10.766;2023-02-23T07:57:05;95259.88;;;9.87;88.27
13407;BME280;6774;48.208;10.766;2023-02-23T07:59:33;95251.31;;;9.79;88.45
13407;BME280;6774;48.208;10.766;2023-02-23T08:02:02;95258.13;;;9.73;88.71
13407;BME280;6774;48.208;10.766;2023-02-23T08:04:30;95253.34;;;9.83;89.14
13407;BME280;6774;48.208;10.766;2023-02-23T08:06:58;95256.88;;;9.90;88.57
13407;BME280;6774;48.208;10.766;2023-02-23T08:09:26;95254.97;;;9.84;89.03
13407;BME280;6774;48.208;10.766;2023-02-23T08:11:55;95252.81;;;9.88;88.96
13407;BME280;6774;48.208;10.766;2023-02-23T08:14:23;95258.59;;;10.05;88.17
13407;BME280;6774;48.208;10.766;2023-02-23T08:16:50;95251.97;;;10.09;88.04
13407;BME280;6774;48.208;10.766;2023-02-23T08:19:20;95262.50;;;10.09;87.98
13407;BME280;6774;48.208;10.766;2023-02-23T08:21:49;95258.25;;;10.08;88.68
13407;BME280;6774;48.208;10.766;2023-02-23T08:24:17;95262.84;;;9.99;88.46
13407;BME280;6774;48.208;10.766;2023-02-23T08:26:44;95269.59;;;10.08;88.45
13407;BME280;6774;48.208;10.766;2023-02-23T08:29:12;95263.75;;;10.13;89.25
13407;BME280;6774;48.208;10.766;2023-02-23T08:31:39;95264.63;;;10.20;88.61
13407;BME280;6774;48.208;10.766;2023-02-23T08:34:07;95257.00;;;10.25;88.09
13407;BME280;6774;48.208;10.766;2023-02-23T08:36:36;95257.00;;;10.25;87.86
13407;BME280;6774;48.208;10.766;2023-02-23T08:39:05;95260.88;;;10.29;87.45
13407;BME280;6774;48.208;10.766;2023-02-23T08:41:32;95257.31;;;10.43;87.59
13407;BME280;6774;48.208;10.766;2023-02-23T08:44:00;95255.31;;;10.45;87.46
13407;BME280;6774;48.208;10.766;2023-02-23T08:46:28;95254.28;;;10.46;87.26
13407;BME280;6774;48.208;10.766;2023-02-23T08:48:56;95257.59;;;10.55;86.99
13407;BME280;6774;48.208;10.766;2023-02-23T08:51:24;95260.09;;;10.63;87.33
13407;BME280;6774;48.208;10.766;2023-02-23T08:53:53;95258.03;;;10.59;87.53
13407;BME280;6774;48.208;10.766;2023-02-23T08:56:22;95255.69;;;10.77;86.78
13407;BME280;6774;48.208;10.766;2023-02-23T08:58:51;95261.97;;;10.76;87.07
13407;BME280;6774;48.208;10.766;2023-02-23T09:01:20;95262.63;;;10.85;87.16
13407;BME280;6774;48.208;10.766;2023-02-23T09:03:49;95257.97;;;10.87;85.97
13407;BME280;6774;48.208;10.766;2023-02-23T09:06:19;95257.81;;;10.88;86.32
13407;BME280;6774;48.208;10.766;2023-02-23T09:08:48;95256.84;;;11.02;85.33
13407;BME280;6774;48.208;10.766;2023-02-23T09:11:18;95259.84;;;10.93;85.02
13407;BME280;6774;48.208;10.766;2023-02-23T09:13:46;95257.06;;;11.07;84.44
13407;BME280;6774;48.208;10.766;2023-02-23T09:16:14;95257.56;;;11.31;84.60
13407;BME280;6774;48.208;10.766;2023-02-23T09:18:42;95261.97;;;11.10;84.65
13407;BME280;6774;48.208;10.766;2023-02-23T09:21:13;95269.44;;;11.00;84.67
13407;BME280;6774;48.208;10.766;2023-02-23T09:23:45;95264.78;;;10.68;86.87
13407;BME280;6774;48.208;10.766;2023-02-23T09:26:15;95270.72;;;10.76;86.45
13407;BME280;6774;48.208;10.766;2023-02-23T09:28:46;95266.03;;;10.72;86.58
13407;BME280;6774;48.208;10.766;2023-02-23T09:31:16;95261.72;;;10.64;87.16
13407;BME280;6774;48.208;10.766;2023-02-23T09:33:46;95272.06;;;10.66;86.76
13407;BME280;6774;48.208;10.766;2023-02-23T09:36:16;95276.13;;;10.62;86.97
13407;BME280;6774;48.208;10.766;2023-02-23T09:38:45;95269.44;;;10.66;87.11
13407;BME280;6774;48.208;10.766;2023-02-23T09:41:42;95270.84;;;10.62;86.84
13407;BME280;6774;48.208;10.766;2023-02-23T09:44:20;95276.94;;;10.69;86.22
13407;BME280;6774;48.208;10.766;2023-02-23T09:47:02;95285.59;;;10.84;87.62
13407;BME280;6774;48.208;10.766;2023-02-23T09:49:34;95273.34;;;11.11;86.36
13407;BME280;6774;48.208;10.766;2023-02-23T09:52:09;95281.31;;;10.83;86.75
13407;BME280;6774;48.208;10.766;2023-02-23T09:54:42;95288.41;;;11.17;85.29
13407;BME280;6774;48.208;10.766;2023-02-23T09:57:13;95282.22;;;11.03;83.78
13407;BME280;6774;48.208;10.766;2023-02-23T09:59:44;95289.66;;;11.28;84.74
13407;BME280;6774;48.208;10.766;2023-02-23T10:02:20;95290.50;;;11.35;83.32
13407;BME280;6774;48.208;10.766;2023-02-23T10:04:51;95289.63;;;11.21;84.02
13407;BME280;6774;48.208;10.766;2023-02-23T10:07:26;95287.59;;;11.17;84.72
13407;BME280;6774;48.208;10.766;2023-02-23T10:10:04;95287.13;;;11.06;84.91
13407;BME280;6774;48.208;10.766;2023-02-23T10:12:41;95292.00;;;11.09;84.66
13407;BME280;6774;48.208;10.766;2023-02-23T10:15:21;95284.78;;;11.25;84.75
13407;BME280;6774;48.208;10.766;2023-02-23T10:17:58;95290.50;;;11.35;83.64
13407;BME280;6774;48.208;10.766;2023-02-23T10:20:36;95285.78;;;11.24;84.31
13407;BME280;6774;48.208;10.766;2023-02-23T10:23:11;95287.28;;;11.46;83.22
13407;BME280;6774;48.208;10.766;2023-02-23T10:25:44;95279.34;;;11.39;83.20
13407;BME280;6774;48.208;10.766;2023-02-23T10:28:16;95280.63;;;11.63;83.41
13407;BME280;6774;48.208;10.766;2023-02-23T10:30:46;95283.34;;;11.83;82.20
13407;BME280;6774;48.208;10.766;2023-02-23T10:33:19;95280.16;;;12.08;80.66
13407;BME280;6774;48.208;10.766;2023-02-23T10:35:49;95277.09;;;12.17;81.03
13407;BME280;6774;48.208;10.766;2023-02-23T10:38:37;95274.44;;;12.64;78.54
13407;BME280;6774;48.208;10.766;2023-02-23T10:41:05;95266.16;;;13.18;78.96
13407;BME280;6774;48.208;10.766;2023-02-23T10:43:33;95273.09;;;13.19;76.71
13407;BME280;6774;48.208;10.766;2023-02-23T10:46:03;95276.28;;;13.34;76.45
13407;BME280;6774;48.208;10.766;2023-02-23T10:48:36;95266.13;;;13.31;75.95
13407;BME280;6774;48.208;10.766;2023-02-23T10:51:13;95269.00;;;13.23;75.64
13407;BME280;6774;48.208;10.766;2023-02-23T10:53:44;95264.84;;;13.41;74.29
13407;BME280;6774;48.208;10.766;2023-02-23T10:56:13;95272.31;;;12.99;75.18
13407;BME280;6774;48.208;10.766;2023-02-23T10:58:42;95274.19;;;12.78;76.66
13407;BME280;6774;48.208;10.766;2023-02-23T11:01:14;95270.13;;;12.69;77.42
13407;BME280;6774;48.208;10.766;2023-02-23T11:03:46;95272.00;;;12.36;78.06
13407;BME280;6774;48.208;10.766;2023-02-23T11:06:27;95273.22;;;12.40;76.67
13407;BME280;6774;48.208;10.766;2023-02-23T11:08:56;95270.16;;;12.30;77.20
13407;BME280;6774;48.208;10.766;2023-02-23T11:11:25;95272.41;;;12.00;78.14
13407;BME280;6774;48.208;10.766;2023-02-23T11:13:55;95272.81;;;12.30;77.68
13407;BME280;6774;48.208;10.766;2023-02-23T11:16:28;95262.22;;;12.56;77.56
13407;BME280;6774;48.208;10.766;2023-02-23T11:18:58;95260.97;;;12.65;75.80
13407;BME280;6774;48.208;10.766;2023-02-23T11:21:28;95253.34;;;13.02;76.81
13407;BME280;6774;48.208;10.766;2023-02-23T11:24:03;95252.25;;;13.29;73.35
13407;BME280;6774;48.208;10.766;2023-02-23T11:26:40;95254.09;;;13.35;73.24
13407;BME280;6774;48.208;10.766;2023-02-23T11:29:15;95248.16;;;13.33;73.84
13407;BME280;6774;48.208;10.766;2023-02-23T11:31:50;95240.66;;;13.62;72.68
13407;BME280;6774;48.208;10.766;2023-02-23T11:34:23;95236.09;;;13.82;72.60
13407;BME280;6774;48.208;10.766;2023-02-23T11:37:00;95230.16;;;14.80;69.84
13407;BME280;6774;48.208;10.766;2023-02-23T11:39:28;95231.06;;;14.92;69.24
13407;BME280;6774;48.208;10.766;2023-02-23T11:42:14;95220.44;;;15.11;65.42
13407;BME280;6774;48.208;10.766;2023-02-23T11:44:49;95223.44;;;15.14;67.23
13407;BME280;6774;48.208;10.766;2023-02-23T11:47:20;95219.44;;;16.02;65.82
13407;BME280;6774;48.208;10.766;2023-02-23T11:49:49;95217.97;;;16.41;63.46
13407;BME280;6774;48.208;10.766;2023-02-23T11:52:21;95214.50;;;16.52;62.18
13407;BME280;6774;48.208;10.766;2023-02-23T11:54:53;95212.34;;;16.84;61.91
13407;BME280;6774;48.208;10.766;2023-02-23T11:57:26;95210.09;;;16.23;61.77
13407;BME280;6774;48.208;10.766;2023-02-23T11:59:55;95205.47;;;16.30;62.16
13407;BME280;6774;48.208;10.766;2023-02-23T12:02:28;95197.97;;;16.38;62.80
13407;BME280;6774;48.208;10.766;2023-02-23T12:05:06;95201.53;;;16.20;63.35
13407;BME280;6774;48.208;10.766;2023-02-23T12:07:37;95192.03;;;16.95;61.31
13407;BME280;6774;48.208;10.766;2023-02-23T12:10:17;95187.19;;;17.32;59.88
13407;BME280;6774;48.208;10.766;2023-02-23T12:12:51;95183.91;;;17.70;58.42
13407;BME280;6774;48.208;10.766;2023-02-23T12:15:29;95181.84;;;17.32;57.29
13407;BME280;6774;48.208;10.766;2023-02-23T12:18:03;95185.72;;;17.81;58.02
13407;BME280;6774;48.208;10.766;2023-02-23T12:20:38;95180.31;;;17.36;58.34
13407;BME280;6774;48.208;10.766;2023-02-23T12:23:11;95191.22;;;16.24;60.78
13407;BME280;6774;48.208;10.766;2023-02-23T12:25:45;95182.75;;;16.15;60.41
13407;BME280;6774;48.208;10.766;2023-02-23T12:28:19;95186.06;;;15.46;62.99
13407;BME280;6774;48.208;10.766;2023-02-23T12:30:54;95174.72;;;15.50;61.64
13407;BME280;6774;48.208;10.766;2023-02-23T12:33:31;95182.63;;;15.57;62.38
13407;BME280;6774;48.208;10.766;2023-02-23T12:36:03;95180.72;;;15.46;63.21
13407;BME280;6774;48.208;10.766;2023-02-23T12:38:43;95178.63;;;14.99;63.69
13407;BME280;6774;48.208;10.766;2023-02-23T12:41:19;95176.50;;;14.90;63.21
13407;BME280;6774;48.208;10.766;2023-02-23T12:43:54;95180.66;;;14.86;63.95
13407;BME280;6774;48.208;10.766;2023-02-23T12:46:27;95173.31;;;14.99;65.20
13407;BME280;6774;48.208;10.766;2023-02-23T12:49:07;95167.63;;;15.62;62.81
13407;BME280;6774;48.208;10.766;2023-02-23T12:51:42;95162.75;;;16.36;61.37
13407;BME280;6774;48.208;10.766;2023-02-23T12:54:12;95156.47;;;17.29;58.19
13407;BME280;6774;48.208;10.766;2023-02-23T12:56:51;95157.91;;;17.77;57.51
13407;BME280;6774;48.208;10.766;2023-02-23T12:59:52;95152.59;;;17.94;55.79
13407;BME280;6774;48.208;10.766;2023-02-23T13:02:29;95153.25;;;18.73;55.93
13407;BME280;6774;48.208;10.766;2023-02-23T13:05:15;95154.03;;;19.13;55.32
13407;BME280;6774;48.208;10.766;2023-02-23T13:07:58;95140.91;;;19.38;54.79
13407;BME280;6774;48.208;10.766;2023-02-23T13:10:45;95141.56;;;19.01;53.20
13407;BME280;6774;48.208;10.766;2023-02-23T13:13:24;95148.06;;;18.11;55.93
13407;BME280;6774;48.208;10.766;2023-02-23T13:16:00;95149.00;;;18.05;55.74
13407;BME280;6774;48.208;10.766;2023-02-23T13:18:36;95150.78;;;18.33;56.18
13407;BME280;6774;48.208;10.766;2023-02-23T13:21:15;95145.44;;;18.16;55.71
13407;BME280;6774;48.208;10.766;2023-02-23T13:23:54;95141.06;;;18.10;55.94
13407;BME280;6774;48.208;10.766;2023-02-23T13:26:32;95152.41;;;18.01;56.67
13407;BME280;6774;48.208;10.766;2023-02-23T13:29:06;95145.84;;;17.91;56.06
13407;BME280;6774;48.208;10.766;2023-02-23T13:31:42;95149.50;;;17.85;56.32
13407;BME280;6774;48.208;10.766;2023-02-23T13:34:12;95144.63;;;17.82;56.65
13407;BME280;6774;48.208;10.766;2023-02-23T13:36:48;95142.38;;;17.74;56.88
13407;BME280;6774;48.208;10.766;2023-02-23T13:39:33;95142.94;;;17.64;57.63
13407;BME280;6774;48.208;10.766;2023-02-23T13:42:17;95141.16;;;17.53;57.77
13407;BME280;6774;48.208;10.766;2023-02-23T13:44:50;95138.22;;;17.38;58.42
13407;BME280;6774;48.208;10.766;2023-02-23T13:47:32;95141.72;;;17.27;58.91
13407;BME280;6774;48.208;10.766;2023-02-23T13:50:05;95132.84;;;17.21;58.90